createdAt,value
2018-07-28T09:11:44.365Z,37.05
2018-07-28T09:14:13.552Z,36.73
2018-07-28T09:16:42.598Z,36.66
2018-07-28T09:19:11.691Z,36.90
2018-07-28T09:21:40.808Z,37.51
2018-07-28T09:24:09.890Z,38.17
2018-07-28T09:26:38.999Z,38.55
2018-07-28T09:29:08.081Z,38.97
2018-07-28T09:31:37.168Z,39.18
2018-07-28T09:34:06.545Z,39.36
2018-07-28T09:36:35.444Z,39.04
2018-07-28T09:39:08.073Z,38.99
2018-07-28T09:41:37.270Z,38.97
2018-07-28T09:44:06.534Z,39.26
2018-07-28T09:46:35.726Z,39.60
2018-07-28T09:49:04.817Z,39.77
2018-07-28T09:51:33.897Z,39.94
2018-07-28T09:54:03.054Z,40.54
2018-07-28T09:56:31.509Z,41.20
2018-07-28T09:59:00.598Z,41.29
2018-07-28T10:01:29.691Z,40.99
2018-07-28T10:03:58.137Z,40.60
2018-07-28T10:06:27.294Z,39.85
2018-07-28T10:08:56.396Z,39.79
2018-07-28T10:11:25.469Z,39.86
2018-07-28T10:13:54.582Z,40.28
2018-07-28T10:16:23.676Z,39.85
2018-07-28T10:18:52.760Z,39.02
2018-07-28T10:21:21.873Z,39.04
2018-07-28T10:23:50.963Z,38.91
2018-07-28T10:26:20.077Z,39.11
2018-07-28T10:28:49.173Z,39.20
2018-07-28T10:31:18.321Z,39.50
2018-07-28T10:33:47.475Z,39.66
2018-07-28T10:36:16.631Z,39.93
2018-07-28T10:38:45.764Z,39.71
2018-07-28T10:41:14.964Z,39.49
2018-07-28T10:43:44.118Z,39.71
2018-07-28T10:46:13.240Z,39.94
2018-07-28T10:48:42.387Z,39.58
2018-07-28T10:51:11.524Z,39.39
2018-07-28T10:53:40.617Z,39.04
2018-07-28T10:56:09.714Z,38.26
2018-07-28T10:58:38.784Z,37.03
2018-07-28T11:01:08.070Z,36.61
2018-07-28T11:03:37.250Z,36.50
2018-07-28T11:06:07.058Z,36.45
2018-07-28T11:08:36.225Z,36.57
2018-07-28T11:11:05.415Z,36.63
2018-07-28T11:13:34.614Z,36.57
2018-07-28T11:16:03.740Z,36.49
2018-07-28T11:18:32.853Z,36.38
2018-07-28T11:21:02.065Z,36.22
2018-07-28T11:23:47.045Z,35.97
2018-07-28T11:26:16.227Z,35.80
2018-07-28T11:28:45.286Z,35.89
2018-07-28T11:31:31.975Z,35.99
2018-07-28T11:34:18.244Z,35.84
2018-07-28T11:37:04.672Z,35.61
2018-07-28T11:39:50.937Z,35.31
2018-07-28T11:42:37.289Z,35.31
2018-07-28T11:45:13.288Z,35.20
2018-07-28T11:47:42.406Z,34.89
2018-07-28T11:50:11.641Z,34.56
2018-07-28T11:52:41.110Z,34.42
2018-07-28T11:55:10.259Z,34.46
2018-07-28T11:57:39.321Z,34.29
2018-07-28T12:00:10.211Z,34.21
2018-07-28T12:02:39.593Z,34.13
2018-07-28T12:05:08.929Z,34.12
2018-07-28T12:07:38.037Z,34.29
2018-07-28T12:10:08.862Z,34.62
2018-07-28T12:12:38.131Z,34.56
2018-07-28T12:15:07.830Z,34.55
2018-07-28T12:17:36.960Z,34.51
2018-07-28T12:20:06.453Z,34.31
2018-07-28T12:22:35.405Z,34.18
2018-07-28T12:25:04.718Z,34.18
2018-07-28T12:27:33.865Z,34.22
2018-07-28T12:30:03.013Z,34.21
2018-07-28T12:32:32.093Z,34.16
2018-07-28T12:35:01.235Z,34.20
2018-07-28T12:37:30.258Z,34.21
2018-07-28T12:39:59.481Z,34.14
2018-07-28T12:42:28.618Z,33.97
2018-07-28T12:44:57.721Z,33.89
2018-07-28T12:47:26.829Z,33.86
2018-07-28T12:49:56.034Z,33.91
2018-07-28T12:52:25.268Z,33.86
2018-07-28T12:54:58.201Z,33.85
2018-07-28T12:57:27.529Z,33.89
2018-07-28T12:59:56.728Z,33.92
2018-07-28T13:02:25.930Z,33.90
2018-07-28T13:04:55.030Z,33.81
2018-07-28T13:07:24.121Z,33.85
2018-07-28T13:09:53.357Z,33.96
2018-07-28T13:12:22.465Z,33.87
2018-07-28T13:14:51.545Z,33.77
2018-07-28T13:17:20.694Z,33.54
2018-07-28T13:19:49.769Z,33.37
2018-07-28T13:22:18.912Z,33.28
2018-07-28T13:24:48.030Z,33.16
2018-07-28T13:27:17.116Z,33.02
2018-07-28T13:29:46.266Z,32.93
2018-07-28T13:32:15.374Z,32.91
2018-07-28T13:34:44.551Z,32.88
2018-07-28T13:37:13.770Z,32.91
2018-07-28T13:39:42.865Z,32.97
2018-07-28T13:42:11.999Z,32.90
2018-07-28T13:44:41.070Z,33.00
2018-07-28T13:47:10.191Z,33.10
2018-07-28T13:49:39.363Z,33.13
2018-07-28T13:52:08.490Z,33.16
2018-07-28T13:54:37.602Z,33.20
2018-07-28T13:57:06.934Z,33.28
2018-07-28T13:59:36.047Z,33.35
2018-07-28T14:02:05.193Z,33.40
2018-07-28T14:04:34.272Z,33.36
2018-07-28T14:07:03.440Z,33.28
2018-07-28T14:09:32.539Z,33.22
2018-07-28T14:12:01.653Z,33.10
2018-07-28T14:14:30.744Z,32.98
2018-07-28T14:16:59.833Z,32.90
2018-07-28T14:19:28.925Z,32.91
2018-07-28T14:21:58.033Z,33.01
2018-07-28T14:24:27.126Z,33.09
2018-07-28T14:26:56.217Z,33.14
2018-07-28T14:29:25.371Z,33.23
2018-07-28T14:31:54.453Z,33.28
2018-07-28T14:34:23.606Z,33.34
2018-07-28T14:36:52.849Z,33.24
2018-07-28T14:39:22.010Z,33.21
2018-07-28T14:41:51.083Z,33.18
2018-07-28T14:44:20.192Z,33.14
2018-07-28T14:46:49.303Z,33.11
2018-07-28T14:49:18.385Z,33.11
2018-07-28T14:51:47.565Z,33.19
2018-07-28T14:54:16.705Z,33.24
2018-07-28T14:56:45.873Z,33.33
2018-07-28T14:59:14.961Z,33.36
2018-07-28T15:01:44.186Z,33.33
2018-07-28T15:04:13.277Z,33.30
2018-07-28T15:06:42.432Z,33.34
2018-07-28T15:09:11.869Z,33.36
2018-07-28T15:11:40.957Z,33.44
2018-07-28T15:14:10.054Z,33.49
2018-07-28T15:16:39.150Z,33.48
2018-07-28T15:19:08.271Z,33.54
2018-07-28T15:21:37.504Z,33.57
2018-07-28T15:24:06.629Z,33.48
2018-07-28T15:26:35.827Z,33.31
2018-07-28T15:29:04.991Z,33.12
2018-07-28T15:31:34.101Z,33.08
2018-07-28T15:34:03.282Z,33.11
2018-07-28T15:36:32.396Z,33.20
2018-07-28T15:39:01.510Z,33.32
2018-07-28T15:41:30.646Z,33.44
2018-07-28T15:43:59.757Z,33.48
2018-07-28T15:46:28.945Z,33.52
2018-07-28T15:48:58.146Z,33.56
2018-07-28T15:51:27.270Z,33.54
2018-07-28T15:53:56.506Z,33.47
2018-07-28T15:56:25.704Z,33.36
2018-07-28T15:58:54.966Z,33.31
2018-07-28T16:01:24.071Z,33.33
2018-07-28T16:03:53.169Z,33.20
2018-07-28T16:06:22.371Z,33.05
2018-07-28T16:08:51.570Z,32.91
2018-07-28T16:11:20.788Z,32.81
2018-07-28T16:13:49.920Z,32.80
2018-07-28T16:16:19.055Z,32.81
2018-07-28T16:18:48.185Z,32.84
2018-07-28T16:21:17.412Z,32.88
2018-07-28T16:23:46.527Z,32.90
2018-07-28T16:26:15.685Z,32.89
2018-07-28T16:28:44.811Z,32.84
2018-07-28T16:31:13.921Z,32.78
2018-07-28T16:33:43.035Z,32.72
2018-07-28T16:36:12.218Z,32.69
2018-07-28T16:38:41.380Z,32.67
2018-07-28T16:41:10.538Z,32.65
2018-07-28T16:43:39.685Z,32.66
2018-07-28T16:46:08.781Z,32.66
2018-07-28T16:48:37.886Z,32.66
2018-07-28T16:51:07.096Z,32.66
2018-07-28T16:53:36.171Z,32.62
2018-07-28T16:56:05.639Z,32.57
2018-07-28T16:58:34.764Z,32.52
2018-07-28T17:01:03.923Z,32.47
2018-07-28T17:03:33.082Z,32.41
2018-07-28T17:06:02.134Z,32.32
2018-07-28T17:08:31.249Z,32.19
2018-07-28T17:11:00.457Z,32.08
2018-07-28T17:13:29.388Z,31.97
2018-07-28T17:15:58.555Z,31.85
2018-07-28T17:18:27.681Z,31.75
2018-07-28T17:20:56.756Z,31.66
2018-07-28T17:23:25.869Z,31.58
2018-07-28T17:25:54.999Z,31.50
2018-07-28T17:28:24.117Z,31.45
2018-07-28T17:30:53.318Z,31.37
2018-07-28T17:33:22.414Z,30.96
2018-07-28T17:35:51.570Z,30.54
2018-07-28T17:38:20.671Z,30.18
2018-07-28T17:40:49.824Z,29.80
2018-07-28T17:43:19.133Z,29.46
2018-07-28T17:45:48.329Z,29.19
2018-07-28T17:48:17.446Z,28.88
2018-07-28T17:50:46.538Z,28.55
2018-07-28T17:53:15.738Z,28.27
2018-07-28T17:55:44.835Z,28.02
2018-07-28T17:58:14.035Z,27.72
2018-07-28T18:00:43.112Z,27.37
2018-07-28T18:03:12.222Z,27.06
2018-07-28T18:05:41.627Z,26.74
2018-07-28T18:08:10.810Z,26.49
2018-07-28T18:10:39.978Z,26.32
2018-07-28T18:13:09.131Z,26.03
2018-07-28T18:15:38.261Z,25.46
2018-07-28T18:18:07.361Z,24.95
2018-07-28T18:20:36.461Z,24.59
2018-07-28T18:23:06.211Z,24.34
2018-07-28T18:25:35.410Z,24.14
2018-07-28T18:28:04.561Z,23.91
2018-07-28T18:30:33.763Z,23.69
2018-07-28T18:33:02.826Z,23.54
2018-07-28T18:35:31.983Z,23.45
2018-07-28T18:38:01.098Z,23.45
2018-07-28T18:40:30.218Z,23.47
2018-07-28T18:42:59.357Z,23.45
2018-07-28T18:45:28.499Z,23.43
2018-07-28T18:47:57.602Z,23.41
2018-07-28T18:50:26.762Z,23.43
2018-07-28T18:52:55.917Z,23.44
2018-07-28T18:55:25.090Z,23.45
2018-07-28T18:57:54.253Z,23.47
2018-07-28T19:00:23.350Z,23.48
2018-07-28T19:02:52.476Z,23.51
2018-07-28T19:05:21.648Z,23.58
2018-07-28T19:07:50.852Z,23.62
2018-07-28T19:10:20.033Z,23.65
2018-07-28T19:12:54.418Z,23.66
2018-07-28T19:15:23.574Z,23.65
2018-07-28T19:17:57.977Z,23.65
2018-07-28T19:20:27.110Z,23.67
2018-07-28T19:23:01.505Z,23.71
2018-07-28T19:25:30.688Z,23.76
2018-07-28T19:28:05.051Z,23.77
2018-07-28T19:30:34.250Z,23.79
2018-07-28T19:33:03.425Z,23.81
2018-07-28T19:35:37.837Z,23.81
2018-07-28T19:38:07.199Z,23.85
2018-07-28T19:40:36.374Z,23.89
2018-07-28T19:43:05.526Z,23.91
2018-07-28T19:45:34.630Z,23.95
2018-07-28T19:48:03.753Z,23.96
2018-07-28T19:50:32.927Z,23.98
2018-07-28T19:53:02.402Z,24.00
2018-07-28T19:55:31.550Z,23.97
2018-07-28T19:58:00.751Z,23.91
2018-07-28T20:00:29.901Z,23.85
2018-07-28T20:02:59.043Z,23.77
2018-07-28T20:05:28.230Z,23.69
2018-07-28T20:07:57.334Z,23.62
2018-07-28T20:10:26.486Z,23.52
2018-07-28T20:12:55.598Z,23.41
2018-07-28T20:15:24.737Z,23.32
2018-07-28T20:17:53.916Z,23.24
2018-07-28T20:20:23.093Z,23.15
2018-07-28T20:22:52.248Z,23.07
2018-07-28T20:25:21.364Z,23.00
2018-07-28T20:27:50.541Z,22.93
2018-07-28T20:30:19.733Z,22.85
2018-07-28T20:32:48.881Z,22.76
2018-07-28T20:35:18.073Z,22.71
2018-07-28T20:37:47.246Z,22.66
2018-07-28T20:40:16.474Z,22.60
2018-07-28T20:42:45.590Z,22.55
2018-07-28T20:45:14.795Z,22.51
2018-07-28T20:47:43.973Z,22.50
2018-07-28T20:50:13.102Z,22.51
2018-07-28T20:52:42.258Z,22.53
2018-07-28T20:55:11.488Z,22.52
2018-07-28T20:57:40.616Z,22.53
2018-07-28T21:00:09.746Z,22.61
2018-07-28T21:02:38.850Z,22.66
2018-07-28T21:05:07.956Z,22.74
2018-07-28T21:07:37.082Z,22.78
2018-07-28T21:10:06.388Z,22.83
2018-07-28T21:12:35.566Z,22.86
2018-07-28T21:15:05.032Z,22.91
2018-07-28T21:17:34.201Z,22.92
2018-07-28T21:20:03.347Z,22.92
2018-07-28T21:22:32.454Z,22.91
2018-07-28T21:25:01.570Z,22.94
2018-07-28T21:27:30.645Z,22.96
2018-07-28T21:29:59.776Z,22.96
2018-07-28T21:32:28.862Z,23.00
2018-07-28T21:34:57.973Z,23.05
2018-07-28T21:37:27.081Z,23.09
2018-07-28T21:39:56.168Z,23.12
2018-07-28T21:42:25.321Z,23.15
2018-07-28T21:44:54.669Z,23.18
2018-07-28T21:47:23.821Z,23.24
2018-07-28T21:49:52.922Z,23.31
2018-07-28T21:52:22.099Z,23.37
2018-07-28T21:54:51.342Z,23.44
2018-07-28T21:57:20.661Z,23.48
2018-07-28T21:59:49.814Z,23.49
2018-07-28T22:02:18.975Z,23.50
2018-07-28T22:04:48.057Z,23.51
2018-07-28T22:07:17.206Z,23.51
2018-07-28T22:09:46.262Z,23.53
2018-07-28T22:12:15.398Z,23.54
2018-07-28T22:14:44.493Z,23.56
2018-07-28T22:17:13.613Z,23.60
2018-07-28T22:19:42.753Z,23.62
2018-07-28T22:22:11.881Z,23.62
2018-07-28T22:24:40.997Z,23.61
2018-07-28T22:27:10.086Z,23.60
2018-07-28T22:29:39.181Z,23.58
2018-07-28T22:32:08.294Z,23.57
2018-07-28T22:34:37.409Z,23.53
2018-07-28T22:37:06.609Z,23.49
2018-07-28T22:39:35.767Z,23.46
2018-07-28T22:42:04.901Z,23.44
2018-07-28T22:44:34.018Z,23.42
2018-07-28T22:47:03.112Z,23.39
2018-07-28T22:49:32.780Z,23.38
2018-07-28T22:52:02.041Z,23.39
2018-07-28T22:54:31.121Z,23.37
2018-07-28T22:57:00.314Z,23.36
2018-07-28T22:59:29.442Z,23.32
2018-07-28T23:01:58.548Z,23.29
2018-07-28T23:04:27.633Z,23.24
2018-07-28T23:06:56.731Z,23.17
2018-07-28T23:09:25.855Z,23.11
2018-07-28T23:11:54.963Z,23.05
2018-07-28T23:14:24.093Z,23.00
2018-07-28T23:16:53.180Z,22.97
2018-07-28T23:19:22.279Z,22.91
2018-07-28T23:21:51.382Z,22.82
2018-07-28T23:24:20.495Z,22.75
2018-07-28T23:26:49.577Z,22.68
2018-07-28T23:29:18.670Z,22.63
2018-07-28T23:31:47.782Z,22.56
2018-07-28T23:34:16.874Z,22.51
2018-07-28T23:36:46.073Z,22.47
2018-07-28T23:39:15.157Z,22.47
2018-07-28T23:41:44.278Z,22.45
2018-07-28T23:44:13.357Z,22.45
2018-07-28T23:46:42.504Z,22.45
2018-07-28T23:49:11.688Z,22.44
2018-07-28T23:51:40.782Z,22.42
2018-07-28T23:54:09.861Z,22.41
2018-07-28T23:56:39.010Z,22.41
2018-07-28T23:59:08.122Z,22.40
